Villa Castelli, Argentina
Current Conditions -  °F | °C
As of 1:00 PM on Thursday 18 Dec 2014 (Local Time) from SCSE Reporting Station
Overcast Overcast  
Wind Chill: 63°   Ceiling: 2100
Heat Index: 63°   Visibility: 6mi
Dew Point: 54°   Wind: 14mph
Humidity: 72%   Direction: 280°W
Pressure: 30.06"   Gusts: NA
Location:  29°S, 68.18°W
Report Text: SCSE 181600Z 28012KT 9999 FEW015 OVC021 17/12 Q1018
Loading
Personal Weather Stations






























Interactive Weather Map New forecast layout! Learn more

10-Day Weather Forecast

Advertisements
Track Severe Weather on mobile